Have a Safe July 4th! 

Flight Track Log - Related Links

Times and Time Zones

All times are in EDT time to prevent confusion due to time zone crossing. See the N960DL flight status page for this flight to view local times or setup timezone preferences in your user account.

Time Position Orientation Groundspeed Altitude Reporting Facility
EDT Latitude Longitude Course Direction KTS MPH feet Rate Location/Type
Wed 04:10:23 PM 41.9564 -72.6661 242° Southwest 196 226 1,200  Level Boston Center
Wed 04:11:05 PM 41.9792 -72.6328 47° Northeast 205 236 1,900 1,922 Climbing Boston Center
Wed 04:12:06 PM 42.0356 -72.5883 30° Northeast 250 288 4,500 2,441 Climbing Boston Center
Wed 04:13:00 PM 41.9000 -73.2904 270° West  Level FlightAware Approximate
Wed 04:13:03 PM 42.0708 -72.6386 313° West 203 234 6,700  Level Boston Center
Wed 04:14:00 PM 41.8407 -73.4187 236° Southwest  Level FlightAware Approximate
Wed 04:14:04 PM 42.0417 -72.7308 247° West 183 211 10,000  Level Boston Center
Wed 04:15:00 PM 41.7859 -73.5520 242° Southwest  Level FlightAware Approximate
Wed 04:15:01 PM 42.0100 -72.8339 248° West 241 277 11,300  Level Boston Center
Wed 04:16:02 PM 41.9742 -72.9483 247° West 291 335 13,700 2,311 Climbing Boston Center
Wed 04:17:03 PM 41.9403 -73.0653 249° West 343 395 16,000 2,213 Climbing Boston Center
Wed 04:18:04 PM 41.8975 -73.2042 248° West 363 418 18,200 1,932 Climbing Boston Center
Wed 04:19:01 PM 41.8594 -73.3181 246° West 375 432 19,800 1,678 Climbing Boston Center
Wed 04:20:02 PM 41.8103 -73.4456 243° Southwest 380 437 21,500 1,683 Climbing Boston Center
Wed 04:22:10 PM 41.6033 -73.6508 217° Southwest 411 473 25,100 1,492 Climbing New York Center
Wed 04:23:11 PM 41.5117 -73.7439 217° Southwest 416 479 26,200 984 Climbing New York Center
Wed 04:24:12 PM 41.4133 -73.8417 217° Southwest 435 501 27,100 984 Climbing New York Center
Wed 04:25:13 PM 41.3289 -73.9567 226° Southwest 441 507 28,200 1,322 Climbing New York Center
Wed 04:26:10 PM 41.2506 -74.0797 230° Southwest 441 507 29,700 908 Climbing New York Center
Wed 04:27:12 PM 41.1725 -74.1944 228° Southwest 436 502 30,000 146 Climbing New York Center
Wed 04:28:13 PM 41.0856 -74.3083 225° Southwest 436 502 30,000  Level New York Center
Wed 04:29:10 PM 41.0092 -74.4308 230° Southwest 436 502 30,000  Level New York Center
Wed 04:30:11 PM 40.9264 -74.5444 226° Southwest 436 502 30,000  Level New York Center
Wed 04:31:12 PM 40.8472 -74.6664 229° Southwest 436 502 30,000  Level New York Center
Wed 04:32:10 PM 40.7642 -74.7822 227° Southwest 436 502 30,000  Level New York Center
Wed 04:33:11 PM 40.6872 -74.9036 230° Southwest 436 502 30,000  Level New York Center
Wed 04:34:12 PM 40.6081 -75.0192 228° Southwest 431 496 30,000  Level New York Center
Wed 04:35:10 PM 40.5269 -75.1314 226° Southwest 431 496 30,000  Level New York Center
Wed 04:36:10 PM 40.4475 -75.2464 228° Southwest 431 496 30,000  Level New York Center
Wed 04:37:11 PM 40.3658 -75.3636 228° Southwest 431 496 30,000  Level New York Center
Wed 04:38:11 PM 40.2864 -75.4781 228° Southwest 431 496 30,000  Level New York Center
Wed 04:39:10 PM 40.2086 -75.5953 229° Southwest 426 490 30,000  Level New York Center
Wed 04:40:11 PM 40.1450 -75.7211 237° Southwest 426 490 30,000  Level New York Center
Wed 04:41:11 PM 40.0792 -75.8494 236° Southwest 426 490 30,000  Level New York Center
Wed 04:42:12 PM 40.0172 -75.9778 238° Southwest 426 490 30,000  Level New York Center
Wed 04:43:10 PM 39.9511 -76.1056 236° Southwest 426 490 30,000  Level New York Center
Wed 04:45:27 PM 39.8069 -76.3828 236° Southwest 436 502 30,000  Level Washington Center
Wed 04:46:27 PM 39.7436 -76.5089 237° Southwest 431 496 30,000  Level Washington Center
Wed 04:47:27 PM 39.6800 -76.6322 236° Southwest 431 496 30,000  Level Washington Center
Wed 04:48:27 PM 39.6100 -76.7578 234° Southwest 431 496 30,000  Level Washington Center
Wed 04:49:27 PM 39.5419 -76.8967 238° Southwest 431 496 30,000  Level Washington Center
Wed 04:50:27 PM 39.4742 -77.0031 230° Southwest 426 490 30,000  Level Washington Center
Wed 04:51:27 PM 39.3747 -77.1111 220° Southwest 426 490 30,000  Level Washington Center
Wed 04:52:27 PM 39.2883 -77.1978 218° Southwest 436 502 30,000  Level Washington Center
Wed 04:53:27 PM 39.1847 -77.3028 218° Southwest 436 502 30,000  Level Washington Center
Wed 04:54:27 PM 39.1103 -77.4000 225° Southwest 431 496 30,000  Level Washington Center
Wed 04:55:27 PM 39.0231 -77.5233 228° Southwest 426 490 30,000  Level Washington Center
Wed 04:56:27 PM 38.9525 -77.6256 228° Southwest 431 496 30,000  Level Washington Center
Wed 04:57:27 PM 38.8689 -77.7514 230° Southwest 426 490 30,000  Level Washington Center
Wed 04:58:27 PM 38.7942 -77.8556 227° Southwest 432 497 30,000  Level Washington Center
Wed 04:59:27 PM 38.7147 -77.9675 228° Southwest 432 497 30,000  Level Washington Center
Wed 05:00:27 PM 38.6375 -78.0794 229° Southwest 432 497 30,000 650 Level Washington Center
Wed 05:01:27 PM 38.5558 -78.1936 228° Southwest 432 497 31,300 1,250 Climbing Washington Center
Wed 05:02:27 PM 38.4783 -78.3047 228° Southwest 432 497 32,500 950 Climbing Washington Center
Wed 05:03:27 PM 38.3986 -78.4158 228° Southwest 432 497 33,200 600 Climbing Washington Center
Wed 05:04:27 PM 38.3208 -78.5267 228° Southwest 426 490 33,700 400 Climbing Washington Center
Wed 05:05:27 PM 38.2453 -78.6322 228° Southwest 426 490 34,000 150 Climbing Washington Center
Wed 05:06:27 PM 38.1608 -78.7556 229° Southwest 426 490 34,000  Level Washington Center
Wed 05:07:27 PM 38.0808 -78.8628 227° Southwest 426 490 34,000  Level Washington Center
Wed 05:08:27 PM 38.0028 -78.9703 227° Southwest 426 490 34,000  Level Washington Center
Wed 05:09:27 PM 37.9244 -79.0800 228° Southwest 426 490 34,000  Level Washington Center
Wed 05:10:27 PM 37.8528 -79.1764 227° Southwest 426 490 34,000  Level Washington Center
Wed 05:11:27 PM 37.7764 -79.2833 228° Southwest 426 490 34,000  Level Washington Center
Wed 05:12:28 PM 37.6894 -79.4022 227° Southwest 426 490 34,000  Level Washington Center
Wed 05:13:27 PM 37.6108 -79.5111 228° Southwest 426 490 34,000  Level Washington Center
Wed 05:14:27 PM 37.5322 -79.6169 227° Southwest 426 490 34,000  Level Washington Center
Wed 05:15:27 PM 37.4556 -79.7203 227° Southwest 426 490 34,000  Level Washington Center
Wed 05:16:27 PM 37.3831 -79.8236 229° Southwest 436 502 34,000  Level Washington Center
Wed 05:17:27 PM 37.2956 -79.9414 227° Southwest 424 488 34,000  Level Washington Center
Wed 05:18:27 PM 37.2208 -80.0442 228° Southwest 419 482 34,000  Level Washington Center
Wed 05:19:53 PM 37.1156 -80.1842 227° Southwest 419 482 34,000  Level Atlanta Center
Wed 05:20:53 PM 37.0394 -80.2867 227° Southwest 414 476 34,000  Level Atlanta Center
Wed 05:21:53 PM 36.9675 -80.3889 229° Southwest 407 468 34,000  Level Atlanta Center
Wed 05:22:53 PM 36.8892 -80.4883 225° Southwest 402 463 34,000  Level Atlanta Center
Wed 05:23:53 PM 36.8047 -80.6011 227° Southwest 408 470 34,000  Level Atlanta Center
Wed 05:24:53 PM 36.7403 -80.6867 227° Southwest 402 463 34,000  Level Atlanta Center
Wed 05:25:53 PM 36.6558 -80.7989 227° Southwest 397 457 34,000  Level Atlanta Center
Wed 05:26:53 PM 36.5772 -80.9031 227° Southwest 407 468 34,000  Level Atlanta Center
Wed 05:27:53 PM 36.5006 -81.0042 227° Southwest 407 468 34,000  Level Atlanta Center
Wed 05:28:53 PM 36.4194 -81.1078 226° Southwest 407 468 34,000  Level Atlanta Center
Wed 05:29:53 PM 36.3428 -81.2111 227° Southwest 407 468 34,000  Level Atlanta Center
Wed 05:30:53 PM 36.2639 -81.3169 227° Southwest 407 468 34,000  Level Atlanta Center
Wed 05:31:53 PM 36.1847 -81.4200 226° Southwest 407 468 34,000  Level Atlanta Center
Wed 05:32:53 PM 36.1075 -81.5228 227° Southwest 412 474 34,000  Level Atlanta Center
Wed 05:33:53 PM 36.0283 -81.6278 227° Southwest 412 474 34,000  Level Atlanta Center
Wed 05:34:53 PM 35.9531 -81.7250 226° Southwest 406 467 34,000  Level Atlanta Center
Wed 05:35:53 PM 35.8714 -81.8272 225° Southwest 406 467 34,000  Level Atlanta Center
Wed 05:36:53 PM 35.7939 -81.9267 226° Southwest 406 467 34,000  Level Atlanta Center
Wed 05:37:53 PM 35.7142 -82.0283 226° Southwest 411 473 34,000  Level Atlanta Center
Wed 05:38:53 PM 35.6344 -82.1300 226° Southwest 406 467 34,000  Level Atlanta Center
Wed 05:39:53 PM 35.5692 -82.2108 225° Southwest 400 460 34,000  Level Atlanta Center
Wed 05:40:53 PM 35.4953 -82.3042 226° Southwest 386 444 34,000  Level Atlanta Center
Wed 05:41:53 PM 35.4172 -82.4028 226° Southwest 386 444 34,000  Level Atlanta Center
Wed 05:42:53 PM 35.3414 -82.4983 226° Southwest 386 444 34,000 -350 Level Atlanta Center
Wed 05:43:53 PM 35.2675 -82.5889 225° Southwest 381 438 33,300 -700 Descending Atlanta Center
Wed 05:44:53 PM 35.1956 -82.6817 227° Southwest 376 433 32,600 -800 Descending Atlanta Center
Wed 05:45:53 PM 35.1192 -82.7742 225° Southwest 382 440 31,700 -800 Descending Atlanta Center
Wed 05:46:53 PM 35.0514 -82.8692 229° Southwest 382 440 31,000 -800 Descending Atlanta Center
Wed 05:47:53 PM 34.9939 -82.9789 237° Southwest 382 440 30,100 -850 Descending Atlanta Center
Wed 05:48:53 PM 34.9406 -83.0861 239° Southwest 382 440 29,300 -800 Descending Atlanta Center
Wed 05:49:53 PM 34.8869 -83.1906 238° Southwest 372 428 28,500 -750 Descending Atlanta Center
Wed 05:50:53 PM 34.8375 -83.2947 240° Southwest 372 428 27,800 -850 Descending Atlanta Center
Wed 05:51:53 PM 34.7819 -83.4117 240° Southwest 366 421 26,800 -900 Descending Atlanta Center
Wed 05:52:53 PM 34.7469 -83.5256 250° West 356 410 26,000 -800 Descending Atlanta Center
Wed 05:53:53 PM 34.7328 -83.6344 261° West 356 410 25,200 -700 Descending Atlanta Center
Wed 05:54:53 PM 34.6453 -83.6878 207° Southwest 330 380 24,600 -850 Descending Atlanta Center
Wed 05:55:53 PM 34.5244 -83.7236 194° South 382 440 23,500 -1,550 Descending Atlanta Center
Wed 05:56:53 PM 34.4075 -83.7569 193° South 419 482 21,500 -2,200 Descending Atlanta Center
Wed 05:57:53 PM 34.2992 -83.7872 193° South 414 476 19,100 -2,250 Descending Atlanta Center
Wed 05:58:53 PM 34.1947 -83.8178 194° South 407 468 17,000 -2,150 Descending Atlanta Center
Wed 05:59:53 PM 34.0883 -83.8481 193° South 395 455 14,800 -2,000 Descending Atlanta Center
Wed 06:00:20 PM 34.0500 -83.8833 217° Southwest 370 426 14,100 -1,034 Descending Atlanta TRACON
Wed 06:01:20 PM 33.9833 -83.9667 226° Southwest 360 414 13,300 -810 Descending Atlanta TRACON
Wed 06:02:26 PM 33.9000 -84.0500 220° Southwest 358 412 12,400 -774 Descending Atlanta TRACON
Wed 06:02:53 PM 33.8653 -84.0864 221° Southwest 367 422 12,100 -207 Descending Atlanta Center
Wed 06:03:53 PM 33.7922 -84.1489 215° Southwest 367 422 12,100 -69 Level Atlanta Center
Wed 06:04:20 PM 33.7333 -84.1833 206° Southwest 346 398 12,000 -65 Descending Atlanta TRACON
Wed 06:05:26 PM 33.7167 -84.2667 257° West 267 307 12,000 -476 Level Atlanta TRACON
Wed 06:06:26 PM 33.7333 -84.3500 284° West 256 295 11,000 -1,150 Descending Atlanta TRACON
Wed 06:07:26 PM 33.7333 -84.4333 270° West 254 292 9,700 -1,304 Descending Atlanta TRACON
Wed 06:08:21 PM 33.7333 -84.5167 270° West 243 280 8,500 -1,263 Descending Atlanta TRACON
Wed 06:09:20 PM 33.7333 -84.5833 270° West 236 272 7,300 -1,261 Descending Atlanta TRACON
Wed 06:10:20 PM 33.7167 -84.6667 257° West 238 274 6,000 -1,400 Descending Atlanta TRACON
Wed 06:11:20 PM 33.6667 -84.6333 151° Southeast 223 257 4,500 -1,500 Descending Atlanta TRACON

Login

Don't have an account? Register now (free) for customized features, flight alerts, and more!